sensor_id;sensor_type;location;lat;lon;timestamp;P1;durP1;ratioP1;P2;durP2;ratioP2
46983;SDS011;34732;52.112;9.366;2024-02-26T07:54:16;12.00;;;10.67;;
46983;SDS011;34732;52.112;9.366;2024-02-26T07:57:43;15.25;;;13.75;;
46983;SDS011;34732;52.112;9.366;2024-02-26T08:01:07;10.25;;;10.25;;
46983;SDS011;34732;52.112;9.366;2024-02-26T08:04:32;13.50;;;13.50;;
46983;SDS011;34732;52.112;9.366;2024-02-26T08:07:58;14.00;;;13.25;;
46983;SDS011;34732;52.112;9.366;2024-02-26T08:11:24;13.25;;;12.00;;
46983;SDS011;34732;52.112;9.366;2024-02-26T08:14:51;16.00;;;14.25;;
46983;SDS011;34732;52.112;9.366;2024-02-26T08:18:15;16.25;;;14.75;;
46983;SDS011;34732;52.112;9.366;2024-02-26T08:21:36;14.00;;;13.00;;
46983;SDS011;34732;52.112;9.366;2024-02-26T08:25:00;12.50;;;12.50;;
46983;SDS011;34732;52.112;9.366;2024-02-26T08:28:31;11.50;;;11.50;;
46983;SDS011;34732;52.112;9.366;2024-02-26T08:31:54;14.75;;;14.50;;
46983;SDS011;34732;52.112;9.366;2024-02-26T08:35:18;12.50;;;11.75;;
46983;SDS011;34732;52.112;9.366;2024-02-26T08:38:42;14.50;;;14.50;;
46983;SDS011;34732;52.112;9.366;2024-02-26T08:42:18;11.50;;;11.00;;
46983;SDS011;34732;52.112;9.366;2024-02-26T08:45:42;12.00;;;11.50;;
46983;SDS011;34732;52.112;9.366;2024-02-26T08:49:03;9.50;;;9.50;;
46983;SDS011;34732;52.112;9.366;2024-02-26T08:56:49;10.00;;;10.00;;
46983;SDS011;34732;52.112;9.366;2024-02-26T09:00:10;6.50;;;6.00;;
46983;SDS011;34732;52.112;9.366;2024-02-26T09:03:36;10.00;;;10.00;;
46983;SDS011;34732;52.112;9.366;2024-02-26T09:07:03;10.50;;;10.25;;
46983;SDS011;34732;52.112;9.366;2024-02-26T09:10:34;8.50;;;8.00;;
46983;SDS011;34732;52.112;9.366;2024-02-26T09:13:55;11.25;;;9.75;;
46983;SDS011;34732;52.112;9.366;2024-02-26T09:17:22;8.25;;;8.25;;
46983;SDS011;34732;52.112;9.366;2024-02-26T09:20:45;9.75;;;9.00;;
46983;SDS011;34732;52.112;9.366;2024-02-26T09:24:11;8.50;;;8.50;;
46983;SDS011;34732;52.112;9.366;2024-02-26T09:27:33;9.75;;;8.25;;
46983;SDS011;34732;52.112;9.366;2024-02-26T09:31:14;10.75;;;10.00;;
46983;SDS011;34732;52.112;9.366;2024-02-26T09:34:43;11.00;;;11.00;;
46983;SDS011;34732;52.112;9.366;2024-02-26T09:38:06;7.00;;;7.00;;
46983;SDS011;34732;52.112;9.366;2024-02-26T09:41:28;9.00;;;8.50;;
46983;SDS011;34732;52.112;9.366;2024-02-26T09:44:57;9.50;;;8.75;;
46983;SDS011;34732;52.112;9.366;2024-02-26T09:48:27;7.50;;;7.50;;
46983;SDS011;34732;52.112;9.366;2024-02-26T09:51:54;8.50;;;7.50;;
46983;SDS011;34732;52.112;9.366;2024-02-26T09:55:20;7.25;;;7.25;;
46983;SDS011;34732;52.112;9.366;2024-02-26T09:58:42;7.50;;;7.50;;
46983;SDS011;34732;52.112;9.366;2024-02-26T10:02:13;6.25;;;4.75;;
46983;SDS011;34732;52.112;9.366;2024-02-26T10:05:37;7.00;;;6.50;;
46983;SDS011;34732;52.112;9.366;2024-02-26T10:09:04;8.00;;;7.50;;
46983;SDS011;34732;52.112;9.366;2024-02-26T10:12:31;7.25;;;7.00;;
46983;SDS011;34732;52.112;9.366;2024-02-26T10:16:00;11.75;;;8.25;;
46983;SDS011;34732;52.112;9.366;2024-02-26T10:19:29;9.75;;;8.50;;
46983;SDS011;34732;52.112;9.366;2024-02-26T10:23:03;7.00;;;7.00;;
46983;SDS011;34732;52.112;9.366;2024-02-26T10:26:32;7.25;;;7.25;;
46983;SDS011;34732;52.112;9.366;2024-02-26T10:29:56;9.25;;;7.50;;
46983;SDS011;34732;52.112;9.366;2024-02-26T10:33:23;8.00;;;8.00;;
46983;SDS011;34732;52.112;9.366;2024-02-26T10:37:00;6.50;;;6.00;;
46983;SDS011;34732;52.112;9.366;2024-02-26T10:40:25;5.75;;;5.00;;
46983;SDS011;34732;52.112;9.366;2024-02-26T10:43:52;4.25;;;3.50;;
46983;SDS011;34732;52.112;9.366;2024-02-26T10:47:22;6.00;;;6.00;;
46983;SDS011;34732;52.112;9.366;2024-02-26T10:50:47;6.50;;;6.00;;
46983;SDS011;34732;52.112;9.366;2024-02-26T10:54:15;9.50;;;9.50;;
46983;SDS011;34732;52.112;9.366;2024-02-26T10:57:54;6.50;;;6.00;;
46983;SDS011;34732;52.112;9.366;2024-02-26T11:01:34;6.00;;;6.00;;
46983;SDS011;34732;52.112;9.366;2024-02-26T11:04:59;8.25;;;7.00;;
46983;SDS011;34732;52.112;9.366;2024-02-26T11:08:30;4.00;;;4.00;;
46983;SDS011;34732;52.112;9.366;2024-02-26T11:11:57;6.00;;;6.00;;
46983;SDS011;34732;52.112;9.366;2024-02-26T11:15:20;7.25;;;7.00;;
46983;SDS011;34732;52.112;9.366;2024-02-26T11:22:34;6.00;;;5.00;;
46983;SDS011;34732;52.112;9.366;2024-02-26T11:26:02;7.00;;;6.50;;
46983;SDS011;34732;52.112;9.366;2024-02-26T11:29:34;6.75;;;6.00;;
46983;SDS011;34732;52.112;9.366;2024-02-26T11:33:09;7.00;;;6.75;;
46983;SDS011;34732;52.112;9.366;2024-02-26T11:36:35;5.75;;;5.25;;
46983;SDS011;34732;52.112;9.366;2024-02-26T11:40:02;6.00;;;6.00;;
46983;SDS011;34732;52.112;9.366;2024-02-26T11:43:23;7.00;;;6.00;;
46983;SDS011;34732;52.112;9.366;2024-02-26T11:50:49;6.25;;;5.50;;
46983;SDS011;34732;52.112;9.366;2024-02-26T11:54:37;5.00;;;5.00;;
46983;SDS011;34732;52.112;9.366;2024-02-26T11:58:01;5.50;;;5.00;;
46983;SDS011;34732;52.112;9.366;2024-02-26T12:05:16;7.25;;;7.25;;
46983;SDS011;34732;52.112;9.366;2024-02-26T12:08:40;4.50;;;4.50;;
46983;SDS011;34732;52.112;9.366;2024-02-26T12:12:07;4.75;;;4.75;;
46983;SDS011;34732;52.112;9.366;2024-02-26T12:15:41;4.25;;;4.25;;
46983;SDS011;34732;52.112;9.366;2024-02-26T12:19:11;5.00;;;5.00;;
46983;SDS011;34732;52.112;9.366;2024-02-26T12:22:41;5.25;;;5.00;;
46983;SDS011;34732;52.112;9.366;2024-02-26T12:26:19;6.00;;;5.00;;
46983;SDS011;34732;52.112;9.366;2024-02-26T12:29:46;5.25;;;5.25;;
46983;SDS011;34732;52.112;9.366;2024-02-26T12:33:16;5.00;;;5.00;;
46983;SDS011;34732;52.112;9.366;2024-02-26T12:36:40;6.00;;;6.00;;
46983;SDS011;34732;52.112;9.366;2024-02-26T12:40:10;5.50;;;5.00;;
46983;SDS011;34732;52.112;9.366;2024-02-26T12:43:35;4.50;;;4.00;;
46983;SDS011;34732;52.112;9.366;2024-02-26T12:47:04;6.25;;;5.75;;
46983;SDS011;34732;52.112;9.366;2024-02-26T12:50:46;4.50;;;4.50;;
46983;SDS011;34732;52.112;9.366;2024-02-26T12:54:07;5.00;;;4.75;;
46983;SDS011;34732;52.112;9.366;2024-02-26T12:57:32;6.67;;;6.67;;
46983;SDS011;34732;52.112;9.366;2024-02-26T13:00:59;5.25;;;4.75;;
46983;SDS011;34732;52.112;9.366;2024-02-26T13:04:20;8.00;;;6.50;;
46983;SDS011;34732;52.112;9.366;2024-02-26T13:07:42;6.00;;;5.50;;
46983;SDS011;34732;52.112;9.366;2024-02-26T13:11:07;6.25;;;5.75;;
46983;SDS011;34732;52.112;9.366;2024-02-26T13:14:31;5.25;;;5.25;;
46983;SDS011;34732;52.112;9.366;2024-02-26T13:17:56;6.50;;;6.50;;
46983;SDS011;34732;52.112;9.366;2024-02-26T13:21:20;6.00;;;5.75;;
46983;SDS011;34732;52.112;9.366;2024-02-26T13:24:53;6.00;;;6.00;;
46983;SDS011;34732;52.112;9.366;2024-02-26T13:28:34;5.00;;;5.00;;
46983;SDS011;34732;52.112;9.366;2024-02-26T13:31:59;8.25;;;6.75;;
46983;SDS011;34732;52.112;9.366;2024-02-26T13:35:20;5.50;;;5.00;;
46983;SDS011;34732;52.112;9.366;2024-02-26T13:38:55;6.50;;;6.50;;
46983;SDS011;34732;52.112;9.366;2024-02-26T13:42:39;5.75;;;5.50;;
46983;SDS011;34732;52.112;9.366;2024-02-26T13:46:06;5.25;;;5.25;;
46983;SDS011;34732;52.112;9.366;2024-02-26T13:49:38;5.25;;;5.25;;
46983;SDS011;34732;52.112;9.366;2024-02-26T13:53:01;5.00;;;5.00;;
46983;SDS011;34732;52.112;9.366;2024-02-26T13:56:28;5.00;;;5.00;;
46983;SDS011;34732;52.112;9.366;2024-02-26T13:59:54;6.25;;;5.25;;
46983;SDS011;34732;52.112;9.366;2024-02-26T14:03:26;6.00;;;5.00;;
46983;SDS011;34732;52.112;9.366;2024-02-26T14:06:55;7.00;;;7.00;;
46983;SDS011;34732;52.112;9.366;2024-02-26T14:10:21;5.00;;;5.00;;
46983;SDS011;34732;52.112;9.366;2024-02-26T14:13:47;6.25;;;5.75;;
46983;SDS011;34732;52.112;9.366;2024-02-26T14:17:16;7.50;;;7.00;;
46983;SDS011;34732;52.112;9.366;2024-02-26T14:20:42;7.00;;;7.00;;
46983;SDS011;34732;52.112;9.366;2024-02-26T14:24:05;4.75;;;4.75;;
46983;SDS011;34732;52.112;9.366;2024-02-26T14:35:39;5.25;;;5.25;;
46983;SDS011;34732;52.112;9.366;2024-02-26T14:39:06;8.00;;;6.00;;
46983;SDS011;34732;52.112;9.366;2024-02-26T14:42:31;6.25;;;6.00;;
46983;SDS011;34732;52.112;9.366;2024-02-26T14:46:01;7.00;;;7.00;;
46983;SDS011;34732;52.112;9.366;2024-02-26T14:49:25;6.50;;;6.00;;
46983;SDS011;34732;52.112;9.366;2024-02-26T14:52:46;6.00;;;6.00;;
46983;SDS011;34732;52.112;9.366;2024-02-26T14:56:18;4.00;;;4.00;;
46983;SDS011;34732;52.112;9.366;2024-02-26T14:59:42;6.00;;;6.00;;
46983;SDS011;34732;52.112;9.366;2024-02-26T15:03:10;5.00;;;4.67;;
46983;SDS011;34732;52.112;9.366;2024-02-26T15:06:42;6.00;;;6.00;;
46983;SDS011;34732;52.112;9.366;2024-02-26T15:10:08;5.50;;;5.50;;
46983;SDS011;34732;52.112;9.366;2024-02-26T15:17:45;1.00;;;1.00;;
46983;SDS011;34732;52.112;9.366;2024-02-26T15:21:07;4.00;;;4.00;;
46983;SDS011;34732;52.112;9.366;2024-02-26T15:24:28;5.33;;;5.00;;
46983;SDS011;34732;52.112;9.366;2024-02-26T15:27:59;4.00;;;4.00;;
46983;SDS011;34732;52.112;9.366;2024-02-26T15:31:26;4.50;;;4.00;;
46983;SDS011;34732;52.112;9.366;2024-02-26T15:34:51;7.00;;;5.00;;
46983;SDS011;34732;52.112;9.366;2024-02-26T15:38:17;4.75;;;4.75;;
46983;SDS011;34732;52.112;9.366;2024-02-26T15:41:41;4.00;;;4.00;;
46983;SDS011;34732;52.112;9.366;2024-02-26T15:45:09;4.75;;;4.75;;
46983;SDS011;34732;52.112;9.366;2024-02-26T15:48:35;4.50;;;4.50;;
46983;SDS011;34732;52.112;9.366;2024-02-26T15:51:59;4.50;;;4.50;;
46983;SDS011;34732;52.112;9.366;2024-02-26T15:55:27;5.00;;;4.50;;
46983;SDS011;34732;52.112;9.366;2024-02-26T15:58:51;5.50;;;5.50;;
46983;SDS011;34732;52.112;9.366;2024-02-26T16:02:15;6.75;;;6.50;;
46983;SDS011;34732;52.112;9.366;2024-02-26T16:05:36;7.75;;;6.75;;
46983;SDS011;34732;52.112;9.366;2024-02-26T16:09:07;6.00;;;5.00;;
46983;SDS011;34732;52.112;9.366;2024-02-26T16:12:40;9.25;;;8.00;;
46983;SDS011;34732;52.112;9.366;2024-02-26T16:16:08;10.00;;;9.00;;
46983;SDS011;34732;52.112;9.366;2024-02-26T16:19:39;12.25;;;11.00;;
46983;SDS011;34732;52.112;9.366;2024-02-26T16:23:08;11.75;;;10.50;;
46983;SDS011;34732;52.112;9.366;2024-02-26T16:26:30;10.50;;;10.25;;
46983;SDS011;34732;52.112;9.366;2024-02-26T16:30:02;11.00;;;10.50;;
46983;SDS011;34732;52.112;9.366;2024-02-26T16:33:26;13.25;;;12.75;;
46983;SDS011;34732;52.112;9.366;2024-02-26T16:36:52;11.00;;;11.00;;
46983;SDS011;34732;52.112;9.366;2024-02-26T16:40:18;10.25;;;10.25;;
46983;SDS011;34732;52.112;9.366;2024-02-26T16:43:39;9.75;;;9.75;;
46983;SDS011;34732;52.112;9.366;2024-02-26T16:47:03;8.75;;;8.00;;
46983;SDS011;34732;52.112;9.366;2024-02-26T16:50:32;10.75;;;10.00;;
46983;SDS011;34732;52.112;9.366;2024-02-26T16:53:58;9.25;;;8.25;;
46983;SDS011;34732;52.112;9.366;2024-02-26T16:57:23;9.50;;;9.50;;
46983;SDS011;34732;52.112;9.366;2024-02-26T17:00:55;9.50;;;9.50;;
46983;SDS011;34732;52.112;9.366;2024-02-26T17:04:23;9.75;;;8.50;;
46983;SDS011;34732;52.112;9.366;2024-02-26T17:07:47;11.25;;;11.00;;
46983;SDS011;34732;52.112;9.366;2024-02-26T17:11:11;11.50;;;10.75;;
46983;SDS011;34732;52.112;9.366;2024-02-26T17:14:36;11.25;;;11.00;;
46983;SDS011;34732;52.112;9.366;2024-02-26T17:18:02;12.75;;;12.00;;
46983;SDS011;34732;52.112;9.366;2024-02-26T17:21:34;12.25;;;11.00;;
46983;SDS011;34732;52.112;9.366;2024-02-26T17:24:58;9.75;;;9.75;;
46983;SDS011;34732;52.112;9.366;2024-02-26T17:28:22;13.00;;;10.75;;
46983;SDS011;34732;52.112;9.366;2024-02-26T17:31:48;10.00;;;10.00;;
46983;SDS011;34732;52.112;9.366;2024-02-26T17:35:16;11.75;;;11.00;;
46983;SDS011;34732;52.112;9.366;2024-02-26T17:38:44;11.50;;;10.00;;
46983;SDS011;34732;52.112;9.366;2024-02-26T17:42:12;11.25;;;11.00;;
46983;SDS011;34732;52.112;9.366;2024-02-26T17:45:39;9.75;;;9.75;;
46983;SDS011;34732;52.112;9.366;2024-02-26T17:49:08;11.00;;;10.75;;
46983;SDS011;34732;52.112;9.366;2024-02-26T17:52:32;12.00;;;12.00;;
46983;SDS011;34732;52.112;9.366;2024-02-26T17:55:59;10.75;;;9.00;;
46983;SDS011;34732;52.112;9.366;2024-02-26T17:59:27;11.75;;;10.25;;
46983;SDS011;34732;52.112;9.366;2024-02-26T18:02:50;6.33;;;6.33;;
46983;SDS011;34732;52.112;9.366;2024-02-26T18:06:13;10.50;;;10.50;;
46983;SDS011;34732;52.112;9.366;2024-02-26T18:09:35;10.00;;;9.25;;
46983;SDS011;34732;52.112;9.366;2024-02-26T18:12:58;10.75;;;9.75;;
46983;SDS011;34732;52.112;9.366;2024-02-26T18:16:27;10.25;;;9.50;;
46983;SDS011;34732;52.112;9.366;2024-02-26T18:19:51;10.50;;;10.25;;
46983;SDS011;34732;52.112;9.366;2024-02-26T18:23:15;11.50;;;10.75;;
46983;SDS011;34732;52.112;9.366;2024-02-26T18:26:43;10.50;;;9.50;;
46983;SDS011;34732;52.112;9.366;2024-02-26T18:30:14;8.25;;;8.00;;
46983;SDS011;34732;52.112;9.366;2024-02-26T18:33:40;8.00;;;8.00;;
46983;SDS011;34732;52.112;9.366;2024-02-26T18:37:01;9.25;;;9.25;;
46983;SDS011;34732;52.112;9.366;2024-02-26T18:40:25;9.50;;;9.50;;
46983;SDS011;34732;52.112;9.366;2024-02-26T18:43:53;7.75;;;7.00;;
46983;SDS011;34732;52.112;9.366;2024-02-26T18:47:17;9.50;;;9.50;;
46983;SDS011;34732;52.112;9.366;2024-02-26T18:50:48;7.75;;;7.75;;
46983;SDS011;34732;52.112;9.366;2024-02-26T18:54:09;8.00;;;8.00;;
46983;SDS011;34732;52.112;9.366;2024-02-26T18:57:45;11.00;;;11.00;;
46983;SDS011;34732;52.112;9.366;2024-02-26T19:01:10;10.00;;;8.75;;
46983;SDS011;34732;52.112;9.366;2024-02-26T19:04:33;10.00;;;9.25;;
46983;SDS011;34732;52.112;9.366;2024-02-26T19:07:54;10.75;;;9.75;;
46983;SDS011;34732;52.112;9.366;2024-02-26T19:11:25;8.75;;;8.75;;
46983;SDS011;34732;52.112;9.366;2024-02-26T19:14:50;10.50;;;8.75;;
46983;SDS011;34732;52.112;9.366;2024-02-26T19:18:16;9.00;;;8.50;;
46983;SDS011;34732;52.112;9.366;2024-02-26T19:21:40;11.50;;;10.00;;
46983;SDS011;34732;52.112;9.366;2024-02-26T19:25:05;8.25;;;7.50;;
